createdAt,value
2023-03-29T00:00:21.788Z,3.15
2023-03-29T00:03:25.531Z,3.28
2023-03-29T00:06:31.947Z,4.32
2023-03-29T00:09:35.194Z,2.42
2023-03-29T00:12:40.700Z,3.50
2023-03-29T00:15:44.021Z,2.83
2023-03-29T00:18:47.362Z,4.90
2023-03-29T00:21:50.926Z,4.93
2023-03-29T00:25:04.831Z,5.70
2023-03-29T00:28:08.292Z,3.70
2023-03-29T00:31:15.202Z,3.83
2023-03-29T00:34:18.922Z,4.15
2023-03-29T00:37:22.238Z,2.38
2023-03-29T00:40:25.610Z,3.75
2023-03-29T00:43:29.407Z,4.80
2023-03-29T00:46:35.512Z,3.55
2023-03-29T00:50:05.650Z,3.10
2023-03-29T00:53:13.175Z,4.35
2023-03-29T00:56:40.563Z,3.20
2023-03-29T00:59:46.025Z,2.20
2023-03-29T01:02:55.001Z,3.03
2023-03-29T01:06:03.838Z,3.10
2023-03-29T01:09:10.060Z,2.15
2023-03-29T01:12:17.956Z,3.70
2023-03-29T01:15:27.261Z,2.97
2023-03-29T01:18:32.164Z,2.70
2023-03-29T01:21:54.965Z,2.25
2023-03-29T01:25:26.909Z,3.50
2023-03-29T01:28:40.063Z,4.38
2023-03-29T01:31:52.462Z,3.67
2023-03-29T01:35:04.887Z,2.42
2023-03-29T01:38:14.629Z,3.33
2023-03-29T01:41:18.115Z,2.75
2023-03-29T01:45:16.940Z,1.50
2023-03-29T01:48:32.136Z,1.70
2023-03-29T01:51:46.377Z,2.40
2023-03-29T01:54:57.739Z,3.33
2023-03-29T01:58:03.958Z,2.90
2023-03-29T02:01:15.316Z,2.92
2023-03-29T02:04:28.546Z,2.72
2023-03-29T02:07:32.982Z,1.30
2023-03-29T02:10:37.708Z,1.38
2023-03-29T02:13:41.711Z,2.55
2023-03-29T02:16:46.926Z,2.25
2023-03-29T02:20:05.362Z,2.35
2023-03-29T02:23:36.946Z,1.98
2023-03-29T02:26:41.505Z,1.42
2023-03-29T02:29:47.592Z,2.13
2023-03-29T02:33:24.618Z,0.77
2023-03-29T02:36:39.006Z,1.17
2023-03-29T02:39:42.826Z,1.08
2023-03-29T02:42:47.579Z,1.40
2023-03-29T02:45:53.386Z,1.70
2023-03-29T02:48:59.546Z,1.52
2023-03-29T02:52:12.400Z,1.65
2023-03-29T02:55:19.631Z,0.90
2023-03-29T02:58:27.208Z,0.88
2023-03-29T03:01:30.911Z,1.20
2023-03-29T03:04:36.216Z,1.10
2023-03-29T03:07:42.520Z,0.90
2023-03-29T03:10:47.442Z,1.17
2023-03-29T03:13:50.983Z,0.50
2023-03-29T03:16:54.373Z,3.85
2023-03-29T03:19:57.877Z,6.00
2023-03-29T03:23:08.557Z,1.67
2023-03-29T03:26:18.655Z,2.22
2023-03-29T03:29:25.384Z,1.23
2023-03-29T03:32:35.717Z,1.13
2023-03-29T03:36:06.996Z,3.78
2023-03-29T03:42:24.986Z,2.80
2023-03-29T03:45:29.720Z,1.30
2023-03-29T03:48:52.798Z,1.13
2023-03-29T03:52:01.181Z,1.40
2023-03-29T03:55:06.218Z,2.33
2023-03-29T03:58:34.938Z,2.38
2023-03-29T04:08:14.622Z,1.77
2023-03-29T04:11:40.806Z,3.10
2023-03-29T04:14:48.520Z,2.22
2023-03-29T04:18:00.510Z,1.85
2023-03-29T04:21:13.856Z,1.50
2023-03-29T04:27:49.928Z,1.20
2023-03-29T04:31:15.935Z,1.00
2023-03-29T04:34:29.346Z,1.50
2023-03-29T04:37:34.056Z,0.85
2023-03-29T04:40:39.038Z,1.23
2023-03-29T04:43:49.168Z,1.42
2023-03-29T04:47:00.616Z,1.38
2023-03-29T04:50:14.513Z,1.73
2023-03-29T04:53:20.484Z,1.80
2023-03-29T04:56:24.570Z,1.00
2023-03-29T04:59:47.049Z,1.80
2023-03-29T05:03:15.193Z,2.28
2023-03-29T05:06:39.284Z,0.80
2023-03-29T05:09:44.411Z,1.50
2023-03-29T05:12:56.934Z,1.00
2023-03-29T05:16:01.390Z,1.00
2023-03-29T05:19:09.464Z,0.93
2023-03-29T05:22:23.429Z,2.60
2023-03-29T05:25:27.701Z,1.52
2023-03-29T05:28:31.625Z,3.53
2023-03-29T05:31:36.494Z,2.00
2023-03-29T05:34:45.341Z,1.83
2023-03-29T05:37:49.018Z,1.95
2023-03-29T05:40:53.978Z,1.63
2023-03-29T05:44:23.659Z,1.70
2023-03-29T05:47:33.312Z,1.92
2023-03-29T05:50:38.193Z,1.80
2023-03-29T05:53:42.410Z,2.40
2023-03-29T05:56:46.022Z,2.63
2023-03-29T05:59:51.481Z,1.60
2023-03-29T06:03:13.667Z,0.55
2023-03-29T06:06:27.091Z,1.25
2023-03-29T06:09:32.456Z,1.20
2023-03-29T06:12:41.589Z,2.33
2023-03-29T06:15:45.736Z,1.50
2023-03-29T06:18:49.554Z,1.83
2023-03-29T06:21:55.770Z,1.40
2023-03-29T06:25:02.511Z,2.95
2023-03-29T06:28:09.496Z,1.98
2023-03-29T06:31:13.871Z,1.85
2023-03-29T06:34:18.043Z,1.98
2023-03-29T06:37:34.804Z,1.60
2023-03-29T06:40:53.350Z,3.63
2023-03-29T06:43:59.599Z,1.50
2023-03-29T06:47:09.890Z,1.80
2023-03-29T06:50:15.275Z,1.15
2023-03-29T06:53:31.421Z,0.90
2023-03-29T07:00:02.390Z,1.15
2023-03-29T07:03:28.639Z,1.27
2023-03-29T07:06:33.229Z,2.05
2023-03-29T07:09:40.627Z,1.83
2023-03-29T07:13:02.758Z,2.30
2023-03-29T07:16:07.336Z,2.47
2023-03-29T07:19:27.945Z,1.23
2023-03-29T07:22:31.400Z,0.80
2023-03-29T07:25:40.035Z,1.20
2023-03-29T07:31:58.500Z,1.80
2023-03-29T07:35:34.606Z,2.00
2023-03-29T07:38:39.207Z,1.73
2023-03-29T07:41:48.649Z,2.20
2023-03-29T07:44:55.098Z,1.80
2023-03-29T07:48:00.347Z,1.58
2023-03-29T07:51:28.080Z,1.60
2023-03-29T07:54:39.667Z,2.65
2023-03-29T07:58:06.567Z,1.00
2023-03-29T08:01:18.774Z,0.68
2023-03-29T08:05:06.316Z,2.50
2023-03-29T08:08:25.581Z,1.00
2023-03-29T08:11:33.834Z,1.20
2023-03-29T08:14:39.992Z,1.75
2023-03-29T08:17:51.845Z,0.80
2023-03-29T08:20:55.430Z,2.88
2023-03-29T08:23:58.969Z,1.45
2023-03-29T08:27:25.310Z,1.30
2023-03-29T08:30:31.911Z,1.90
2023-03-29T08:33:37.757Z,1.30
2023-03-29T08:37:00.288Z,1.05
2023-03-29T08:40:22.243Z,2.30
2023-03-29T08:44:15.654Z,2.75
2023-03-29T08:47:39.707Z,2.10
2023-03-29T08:50:53.455Z,0.98
2023-03-29T08:54:17.465Z,1.50
2023-03-29T08:57:48.158Z,0.80
2023-03-29T09:01:06.640Z,1.40
2023-03-29T09:04:24.624Z,1.70
2023-03-29T09:07:38.699Z,2.42
2023-03-29T09:11:02.851Z,1.95
2023-03-29T09:14:40.986Z,2.47
2023-03-29T09:18:12.763Z,3.15
2023-03-29T09:21:48.872Z,2.55
2023-03-29T09:25:25.954Z,1.70
2023-03-29T09:28:49.033Z,1.35
2023-03-29T09:31:53.634Z,1.92
2023-03-29T09:35:28.603Z,2.20
2023-03-29T09:38:32.828Z,2.25
2023-03-29T09:42:04.994Z,1.40
2023-03-29T09:45:09.763Z,1.50
2023-03-29T09:48:21.631Z,2.53
2023-03-29T09:51:33.893Z,2.60
2023-03-29T09:54:37.609Z,2.60
2023-03-29T09:58:23.380Z,3.75
2023-03-29T10:01:42.225Z,2.08
2023-03-29T10:04:46.253Z,3.85
2023-03-29T10:07:54.378Z,3.58
2023-03-29T10:11:00.309Z,2.40
2023-03-29T10:14:14.826Z,2.70
2023-03-29T10:17:35.254Z,3.13
2023-03-29T10:20:41.355Z,4.00
2023-03-29T10:23:45.047Z,6.78
2023-03-29T10:26:50.165Z,3.92
2023-03-29T10:29:55.150Z,4.18
2023-03-29T10:33:02.977Z,4.78
2023-03-29T10:36:08.748Z,3.58
2023-03-29T10:39:16.918Z,5.53
2023-03-29T10:42:29.498Z,6.63
2023-03-29T10:45:36.526Z,8.80
2023-03-29T10:48:42.654Z,7.15
2023-03-29T10:55:07.640Z,8.07
2023-03-29T10:58:40.013Z,8.68
2023-03-29T11:01:53.555Z,9.85
2023-03-29T11:05:26.635Z,8.73
2023-03-29T11:08:48.859Z,7.28
2023-03-29T11:12:12.213Z,7.57
2023-03-29T11:15:31.572Z,6.82
2023-03-29T11:18:40.036Z,6.50
2023-03-29T11:22:01.436Z,7.55
2023-03-29T11:25:19.677Z,6.97
2023-03-29T11:28:36.701Z,5.35
2023-03-29T11:31:47.283Z,5.30
2023-03-29T11:35:12.968Z,5.03
2023-03-29T11:38:42.295Z,6.38
2023-03-29T11:41:54.688Z,7.07
2023-03-29T11:45:01.948Z,8.98
2023-03-29T11:48:19.945Z,5.18
2023-03-29T11:51:54.332Z,5.32
2023-03-29T11:55:06.116Z,5.68
2023-03-29T11:58:37.446Z,4.60
2023-03-29T12:01:57.243Z,4.50
2023-03-29T12:05:11.136Z,4.97
2023-03-29T12:08:19.228Z,4.88
2023-03-29T12:11:32.888Z,4.18
2023-03-29T12:14:54.891Z,4.88
2023-03-29T12:18:19.528Z,4.00
2023-03-29T12:21:25.396Z,3.40
2023-03-29T12:24:33.865Z,3.63
2023-03-29T12:28:38.344Z,3.33
2023-03-29T12:32:07.768Z,4.57
2023-03-29T12:35:22.886Z,4.25
2023-03-29T12:38:59.105Z,5.03
2023-03-29T12:43:09.248Z,4.28
2023-03-29T12:46:32.478Z,3.90
2023-03-29T12:49:39.927Z,3.75
2023-03-29T12:52:44.115Z,4.32
2023-03-29T12:55:56.741Z,4.07
2023-03-29T12:59:27.728Z,4.03
2023-03-29T13:02:37.724Z,4.85
2023-03-29T13:05:41.283Z,4.05
2023-03-29T13:08:45.889Z,5.70
2023-03-29T13:12:08.606Z,4.90
2023-03-29T13:15:18.423Z,3.85
2023-03-29T13:18:27.546Z,4.22
2023-03-29T13:21:54.642Z,4.15
2023-03-29T13:25:19.131Z,4.20
2023-03-29T13:28:51.858Z,5.57
2023-03-29T13:32:20.398Z,4.20
2023-03-29T13:35:42.700Z,5.15
2023-03-29T13:38:49.449Z,4.57
2023-03-29T13:41:54.853Z,4.05
2023-03-29T13:45:17.432Z,3.95
2023-03-29T13:48:49.585Z,4.18
2023-03-29T13:52:31.269Z,5.32
2023-03-29T13:55:44.388Z,4.10
2023-03-29T13:58:52.749Z,5.00
2023-03-29T14:02:01.278Z,4.88
2023-03-29T14:05:09.403Z,5.30
2023-03-29T14:08:29.936Z,5.60
2023-03-29T14:11:33.952Z,5.82
2023-03-29T14:14:42.623Z,5.40
2023-03-29T14:18:00.772Z,17.00
2023-03-29T14:21:04.858Z,10.52
2023-03-29T14:24:13.577Z,5.63
2023-03-29T14:27:18.285Z,6.90
2023-03-29T14:30:32.384Z,7.05
2023-03-29T14:33:37.157Z,6.32
2023-03-29T14:36:41.038Z,6.53
2023-03-29T14:39:45.300Z,5.35
2023-03-29T14:42:49.788Z,6.63
2023-03-29T14:45:53.252Z,6.03
2023-03-29T14:48:57.744Z,5.55
2023-03-29T14:52:01.196Z,4.00
2023-03-29T14:55:04.850Z,5.07
2023-03-29T14:58:37.102Z,4.30
2023-03-29T15:01:45.320Z,3.88
2023-03-29T15:04:56.590Z,4.45
2023-03-29T15:08:00.960Z,3.53
2023-03-29T15:11:12.620Z,3.53
2023-03-29T15:14:19.277Z,3.55
2023-03-29T15:17:50.298Z,3.78
2023-03-29T15:20:55.543Z,3.70
2023-03-29T15:24:01.235Z,4.40
2023-03-29T15:27:14.460Z,3.50
2023-03-29T15:30:19.886Z,2.83
2023-03-29T15:33:24.814Z,3.70
2023-03-29T15:36:28.288Z,2.63
2023-03-29T15:39:33.132Z,3.60
2023-03-29T15:42:37.276Z,3.20
2023-03-29T15:45:40.763Z,3.85
2023-03-29T15:48:44.310Z,3.63
2023-03-29T15:51:47.799Z,2.35
2023-03-29T15:54:51.063Z,3.55
2023-03-29T15:57:55.206Z,2.65
2023-03-29T16:01:12.147Z,2.75
2023-03-29T16:04:17.878Z,3.63
2023-03-29T16:07:21.650Z,5.45
2023-03-29T16:10:24.924Z,5.93
2023-03-29T16:13:28.269Z,5.97
2023-03-29T16:16:31.619Z,4.75
2023-03-29T16:19:35.622Z,4.70
2023-03-29T16:22:38.887Z,4.55
2023-03-29T16:25:42.280Z,4.90
2023-03-29T16:28:45.656Z,5.30
2023-03-29T16:31:50.106Z,4.60
2023-03-29T16:34:54.233Z,4.10
2023-03-29T16:37:57.659Z,3.38
2023-03-29T16:41:02.211Z,5.05
2023-03-29T16:44:05.655Z,4.85
2023-03-29T16:47:12.930Z,4.40
2023-03-29T16:50:19.372Z,4.72
2023-03-29T16:53:23.025Z,4.72
2023-03-29T16:56:28.161Z,5.32
2023-03-29T16:59:31.433Z,4.25
2023-03-29T17:02:35.167Z,5.10
2023-03-29T17:05:42.047Z,4.85
2023-03-29T17:08:45.390Z,5.32
2023-03-29T17:11:48.850Z,4.90
2023-03-29T17:14:53.310Z,6.03
2023-03-29T17:17:56.780Z,4.78
2023-03-29T17:21:00.201Z,5.10
2023-03-29T17:24:03.449Z,4.93
2023-03-29T17:27:06.709Z,4.95
2023-03-29T17:30:10.552Z,5.30
2023-03-29T17:33:14.308Z,5.72
2023-03-29T17:36:17.593Z,3.78
2023-03-29T17:39:20.913Z,4.07
2023-03-29T17:42:24.169Z,4.60
2023-03-29T17:45:27.774Z,5.20
2023-03-29T17:48:33.476Z,4.28
2023-03-29T17:51:36.944Z,4.65
2023-03-29T17:54:40.191Z,4.30
2023-03-29T17:57:44.538Z,4.93
2023-03-29T18:00:47.932Z,4.05
2023-03-29T18:03:51.387Z,4.00
2023-03-29T18:06:55.633Z,4.47
2023-03-29T18:09:59.235Z,4.45
2023-03-29T18:13:02.541Z,4.57
2023-03-29T18:16:07.526Z,3.90
2023-03-29T18:19:11.452Z,4.25
2023-03-29T18:22:14.689Z,3.65
2023-03-29T18:25:18.937Z,4.47
2023-03-29T18:28:23.570Z,4.25
2023-03-29T18:31:28.568Z,3.83
2023-03-29T18:34:32.033Z,3.80
2023-03-29T18:37:35.297Z,4.03
2023-03-29T18:40:39.902Z,4.78
2023-03-29T18:43:44.740Z,4.22
2023-03-29T18:46:48.726Z,4.38
2023-03-29T18:49:52.005Z,4.13
2023-03-29T18:52:55.302Z,3.85
2023-03-29T18:55:58.548Z,3.95
2023-03-29T18:59:05.724Z,3.88
2023-03-29T19:02:09.035Z,3.90
2023-03-29T19:05:12.605Z,4.32
2023-03-29T19:08:16.285Z,4.18
2023-03-29T19:11:19.560Z,3.70
2023-03-29T19:14:25.841Z,3.85
2023-03-29T19:17:29.205Z,3.83
2023-03-29T19:20:32.807Z,4.10
2023-03-29T19:23:36.916Z,3.80
2023-03-29T19:26:40.588Z,3.50
2023-03-29T19:29:43.932Z,4.00
2023-03-29T19:32:47.535Z,3.90
2023-03-29T19:35:52.530Z,4.28
2023-03-29T19:38:56.348Z,3.63
2023-03-29T19:41:59.666Z,3.60
2023-03-29T19:45:04.598Z,3.00
2023-03-29T19:48:19.457Z,4.05
2023-03-29T19:51:27.388Z,4.05
2023-03-29T19:54:31.407Z,3.83
2023-03-29T19:57:34.841Z,3.50
2023-03-29T20:00:39.500Z,3.58
2023-03-29T20:03:43.831Z,3.78
2023-03-29T20:06:47.591Z,3.60
2023-03-29T20:09:53.043Z,4.65
2023-03-29T20:12:57.705Z,3.75
2023-03-29T20:16:01.030Z,3.67
2023-03-29T20:19:06.681Z,4.05
2023-03-29T20:22:09.961Z,4.00
2023-03-29T20:25:13.400Z,4.72
2023-03-29T20:28:16.659Z,4.85
2023-03-29T20:31:20.007Z,4.07
2023-03-29T20:34:23.445Z,4.68
2023-03-29T20:37:26.799Z,4.13
2023-03-29T20:40:30.804Z,5.40
2023-03-29T20:43:41.824Z,6.35
2023-03-29T20:47:08.762Z,5.28
2023-03-29T20:50:12.236Z,6.03
2023-03-29T20:53:16.986Z,4.70
2023-03-29T20:56:21.454Z,5.00
2023-03-29T20:59:24.756Z,4.75
2023-03-29T21:02:28.122Z,4.57
2023-03-29T21:05:33.742Z,4.07
2023-03-29T21:08:39.301Z,4.40
2023-03-29T21:11:42.932Z,4.05
2023-03-29T21:14:48.042Z,3.67
2023-03-29T21:17:51.649Z,4.35
2023-03-29T21:20:54.928Z,4.05
2023-03-29T21:23:58.234Z,4.25
2023-03-29T21:27:01.917Z,4.38
2023-03-29T21:30:09.369Z,3.90
2023-03-29T21:36:16.047Z,4.70
2023-03-29T21:39:19.430Z,3.83
2023-03-29T21:42:22.677Z,4.20
2023-03-29T21:45:26.082Z,4.75
2023-03-29T21:48:29.691Z,3.80
2023-03-29T21:51:33.358Z,7.25
2023-03-29T21:54:37.049Z,6.07
2023-03-29T21:57:40.339Z,6.30
2023-03-29T22:00:43.724Z,6.47
2023-03-29T22:03:48.225Z,6.85
2023-03-29T22:06:51.532Z,6.75
2023-03-29T22:09:55.392Z,6.88
2023-03-29T22:12:58.685Z,6.78
2023-03-29T22:16:04.464Z,6.63
2023-03-29T22:19:09.305Z,7.47
2023-03-29T22:22:14.904Z,7.97
2023-03-29T22:25:19.877Z,5.80
2023-03-29T22:28:23.162Z,6.72
2023-03-29T22:31:27.980Z,6.28
2023-03-29T22:34:32.059Z,6.47
2023-03-29T22:37:40.291Z,5.65
2023-03-29T22:40:43.783Z,7.00
2023-03-29T22:43:47.520Z,8.05
2023-03-29T22:46:51.002Z,7.22
2023-03-29T22:49:54.317Z,6.78
2023-03-29T22:52:57.596Z,9.57
2023-03-29T22:56:00.931Z,8.93
2023-03-29T22:59:04.366Z,12.27
2023-03-29T23:02:08.334Z,12.27
2023-03-29T23:05:11.826Z,13.73
2023-03-29T23:08:15.124Z,11.43
2023-03-29T23:11:18.415Z,14.05
2023-03-29T23:14:21.701Z,15.05
2023-03-29T23:17:25.013Z,11.23
2023-03-29T23:20:30.844Z,13.82
2023-03-29T23:23:34.320Z,15.73
2023-03-29T23:26:38.218Z,17.77
2023-03-29T23:29:41.700Z,17.42
2023-03-29T23:32:45.133Z,16.27
2023-03-29T23:35:49.435Z,18.88
2023-03-29T23:38:53.046Z,17.52
2023-03-29T23:41:57.328Z,17.42
2023-03-29T23:45:00.918Z,14.77
2023-03-29T23:48:04.466Z,14.13
2023-03-29T23:51:08.809Z,13.55
2023-03-29T23:54:15.938Z,17.77
2023-03-29T23:57:19.442Z,13.63
